Time;durP1;ratioP1;P1;durP2;ratioP2;P2;SDS_P1;SDS_P2;PMS_P1;PMS_P2;Temp;Humidity;BMP_temperature;BMP_pressure;BME280_temperature;BME280_humidity;BME280_pressure;Samples;Min_cycle;Max_cycle;Signal;HPM_P1;HPM_P2
2022/06/03 00:02:07;;;;;;;4.32;3.97;;;12.90;99.90;;;;;;5092774;28;20032;-75
2022/06/03 00:05:03;;;;;;;4.32;3.92;;;12.80;99.90;;;;;;5091968;28;20031;-75
2022/06/03 00:07:41;;;;;;;4.05;3.67;;;12.70;99.90;;;;;;5092956;28;20096;-76
2022/06/03 00:10:26;;;;;;;4.60;4.20;;;12.80;99.90;;;;;;5091875;28;20028;-75
2022/06/03 00:13:26;;;;;;;6.28;4.20;;;12.80;99.90;;;;;;5091582;28;20483;-75
2022/06/03 00:16:03;;;;;;;4.60;4.28;;;12.70;99.90;;;;;;5080792;28;20024;-75
2022/06/03 00:18:56;;;;;;;4.50;4.10;;;12.80;99.90;;;;;;5091563;28;20416;-75
2022/06/03 00:21:40;;;;;;;5.15;4.72;;;12.70;99.90;;;;;;5092423;28;20426;-75
2022/06/03 00:24:17;;;;;;;5.15;4.18;;;12.60;99.90;;;;;;5077867;28;20486;-75
2022/06/03 00:27:03;;;;;;;5.70;5.10;;;12.60;99.90;;;;;;5091768;28;20110;-75
2022/06/03 00:29:34;;;;;;;4.05;3.70;;;12.60;99.90;;;;;;5092504;28;20032;-75
2022/06/03 00:32:24;;;;;;;5.22;4.72;;;12.70;99.90;;;;;;5091757;28;20126;-74
2022/06/03 00:35:11;;;;;;;5.40;4.47;;;12.70;99.90;;;;;;5091591;28;20028;-75
2022/06/03 00:38:00;;;;;;;5.35;4.68;;;12.70;99.90;;;;;;5092106;28;20084;-76
2022/06/03 00:40:40;;;;;;;5.15;4.72;;;12.70;99.90;;;;;;5091702;28;20012;-75
2022/06/03 00:43:53;;;;;;;5.38;4.90;;;12.70;99.90;;;;;;5083479;28;20082;-75
2022/06/03 00:46:33;;;;;;;4.55;4.25;;;12.70;99.90;;;;;;5038940;28;20098;-76
2022/06/03 00:49:21;;;;;;;7.05;4.78;;;12.70;99.90;;;;;;5091446;28;20158;-76
2022/06/03 00:52:11;;;;;;;5.45;4.95;;;12.70;99.90;;;;;;5078282;28;20032;-75
2022/06/03 00:55:02;;;;;;;;;;;12.70;99.90;;;;;;5091954;28;20055;-75
2022/06/03 00:57:36;;;;;;;6.55;4.90;;;12.70;99.90;;;;;;5092008;28;19998;-75
2022/06/03 01:00:22;;;;;;;7.15;4.65;;;12.70;99.90;;;;;;5091181;28;20169;-75
2022/06/03 01:03:35;;;;;;;7.13;4.25;;;12.80;99.90;;;;;;5091324;28;20168;-75
2022/06/03 01:06:11;;;;;;;5.50;5.00;;;12.80;99.90;;;;;;5026579;28;20079;-75
2022/06/03 01:09:09;;;;;;;5.80;5.07;;;12.80;99.90;;;;;;5090453;28;20046;-75
2022/06/03 01:11:50;;;;;;;5.30;4.90;;;12.90;99.90;;;;;;5091941;28;20040;-76
2022/06/03 01:14:15;;;;;;;;;;;12.90;99.90;;;;;;5091863;28;20039;-75
2022/06/03 01:16:44;;;;;;;5.82;5.32;;;12.80;99.90;;;;;;5091242;28;19912;-75
2022/06/03 01:19:31;;;;;;;6.38;4.72;;;12.80;99.90;;;;;;5091599;28;20016;-75
2022/06/03 01:22:34;;;;;;;6.63;4.68;;;12.90;99.90;;;;;;5076556;28;20537;-75
2022/06/03 01:25:21;;;;;;;5.88;5.22;;;12.90;99.90;;;;;;5091411;28;20070;-75
2022/06/03 01:28:08;;;;;;;5.65;5.10;;;13.00;99.90;;;;;;5080322;28;20069;-74
2022/06/03 01:31:11;;;;;;;5.22;4.72;;;12.90;99.90;;;;;;5091141;28;20016;-74
2022/06/03 01:34:01;;;;;;;5.43;5.05;;;12.90;99.90;;;;;;5091586;28;20052;-76
2022/06/03 01:36:50;;;;;;;5.40;4.90;;;13.00;99.90;;;;;;5082209;28;20556;-74
2022/06/03 01:39:36;;;;;;;8.02;5.38;;;13.00;99.90;;;;;;5034239;28;20029;-74
2022/06/03 01:42:28;;;;;;;5.47;5.07;;;12.90;99.90;;;;;;5036400;28;20032;-74
2022/06/03 01:45:13;;;;;;;5.18;4.68;;;13.00;99.90;;;;;;5083424;28;20491;-74
2022/06/03 01:47:58;;;;;;;5.57;4.57;;;13.00;99.90;;;;;;5085252;28;20024;-75
2022/06/03 01:50:52;;;;;;;5.55;5.05;;;12.90;99.90;;;;;;5093574;28;20031;-75
2022/06/03 01:53:51;;;;;;;5.85;5.35;;;12.90;99.90;;;;;;5095697;28;20039;-75
2022/06/03 01:56:36;;;;;;;5.95;4.90;;;12.90;99.90;;;;;;5083693;28;20067;-73
2022/06/03 01:59:29;;;;;;;6.10;5.50;;;12.80;99.90;;;;;;5094040;28;20395;-74
2022/06/03 02:02:25;;;;;;;5.82;5.03;;;12.80;99.90;;;;;;5095618;28;20032;-75
2022/06/03 02:05:26;;;;;;;5.65;5.15;;;12.90;99.90;;;;;;5094341;28;20055;-73
2022/06/03 02:08:04;;;;;;;6.90;4.55;;;12.80;99.90;;;;;;4993025;28;20089;-74
2022/06/03 02:11:11;;;;;;;4.95;4.55;;;12.80;99.90;;;;;;5082005;28;20028;-75
2022/06/03 02:13:46;;;;;;;5.38;4.88;;;12.80;99.90;;;;;;5067653;28;20039;-74
2022/06/03 02:16:39;;;;;;;5.10;4.60;;;12.70;99.90;;;;;;5080789;28;20024;-75
2022/06/03 02:19:22;;;;;;;4.43;3.83;;;12.70;99.90;;;;;;5093822;28;20468;-75
2022/06/03 02:22:39;;;;;;;5.75;4.75;;;12.70;99.90;;;;;;5094651;28;20048;-75
2022/06/03 02:25:42;;;;;;;6.38;5.32;;;12.70;99.90;;;;;;5083527;28;20039;-74
2022/06/03 02:28:16;;;;;;;5.78;4.78;;;12.60;99.90;;;;;;5081338;28;20442;-75
2022/06/03 02:31:01;;;;;;;5.20;4.70;;;12.60;99.90;;;;;;5094413;28;20024;-75
2022/06/03 02:34:10;;;;;;;5.57;5.00;;;12.60;99.90;;;;;;5094076;28;20026;-75
2022/06/03 02:37:03;;;;;;;5.03;4.68;;;12.60;99.90;;;;;;5094714;28;20028;-75
2022/06/03 02:39:53;;;;;;;5.05;4.55;;;12.60;99.90;;;;;;5093528;28;20032;-74
2022/06/03 02:42:36;;;;;;;6.03;4.60;;;12.50;99.90;;;;;;5094196;28;20028;-74
2022/06/03 02:45:48;;;;;;;5.55;5.00;;;12.60;99.90;;;;;;5093680;28;20430;-74
2022/06/03 02:48:33;;;;;;;5.00;4.60;;;12.50;99.90;;;;;;4991725;28;20356;-75
2022/06/03 02:51:15;;;;;;;8.82;4.28;;;12.50;99.90;;;;;;5087328;28;20036;-75
2022/06/03 02:54:14;;;;;;;5.05;4.45;;;12.50;99.90;;;;;;5080041;28;20020;-75
2022/06/03 02:56:57;;;;;;;5.30;4.80;;;12.60;99.90;;;;;;5093913;28;20086;-75
2022/06/03 02:59:25;;;;;;;6.20;4.50;;;12.60;99.90;;;;;;5093690;28;20503;-76
2022/06/03 03:02:12;;;;;;;6.45;4.15;;;12.60;99.90;;;;;;5093040;28;20054;-75
2022/06/03 03:05:05;;;;;;;5.85;4.78;;;12.60;99.90;;;;;;5093826;28;20119;-75
2022/06/03 03:07:54;;;;;;;4.88;4.57;;;12.50;99.90;;;;;;5081097;28;20416;-75
2022/06/03 03:10:32;;;;;;;5.80;4.28;;;12.50;99.90;;;;;;5093658;28;20047;-75
2022/06/03 03:13:15;;;;;;;4.72;4.32;;;12.50;99.90;;;;;;5092996;28;20036;-74
2022/06/03 03:16:02;;;;;;;4.55;4.25;;;12.40;99.90;;;;;;5092883;28;20108;-75
2022/06/03 03:19:07;;;;;;;4.28;3.97;;;12.40;99.90;;;;;;5093324;28;20107;-75
2022/06/03 03:21:38;;;;;;;5.20;4.70;;;12.40;99.90;;;;;;5081288;28;20494;-75
2022/06/03 03:24:41;;;;;;;4.72;4.25;;;12.40;99.90;;;;;;5086887;28;20154;-74
2022/06/03 03:27:25;;;;;;;6.10;4.47;;;12.30;99.90;;;;;;5088160;28;20376;-75
2022/06/03 03:30:17;;;;;;;4.75;3.97;;;12.30;99.90;;;;;;5094539;28;20028;-75
2022/06/03 03:33:14;;;;;;;4.53;4.18;;;12.30;99.90;;;;;;5103583;28;20035;-74
2022/06/03 03:35:57;;;;;;;5.85;4.45;;;12.30;99.90;;;;;;5093274;28;20024;-74
2022/06/03 03:38:57;;;;;;;5.93;4.57;;;12.20;99.90;;;;;;5095776;28;20054;-75
2022/06/03 03:42:10;;;;;;;4.45;4.15;;;12.20;99.90;;;;;;5097307;28;20047;-74
2022/06/03 03:45:13;;;;;;;4.70;4.30;;;12.10;99.90;;;;;;5049903;28;20466;-75
2022/06/03 03:48:06;;;;;;;4.13;3.83;;;12.10;99.90;;;;;;5080368;28;20032;-74
2022/06/03 03:50:57;;;;;;;4.93;4.15;;;12.10;99.90;;;;;;5073062;28;20103;-74
2022/06/03 03:53:29;;;;;;;7.05;4.13;;;12.10;99.90;;;;;;5090967;28;20353;-74
2022/06/03 03:56:13;;;;;;;4.93;4.53;;;12.00;99.90;;;;;;5082618;28;20522;-74
2022/06/03 03:58:57;;;;;;;4.60;4.20;;;12.00;99.90;;;;;;5090558;28;20518;-76
2022/06/03 04:01:53;;;;;;;4.47;4.07;;;12.00;99.90;;;;;;5092465;28;20460;-73
2022/06/03 04:04:19;;;;;;;6.72;4.18;;;12.00;99.90;;;;;;5082288;28;20030;-75
2022/06/03 04:06:56;;;;;;;5.57;4.32;;;12.00;99.90;;;;;;5092722;28;20024;-75
2022/06/03 04:09:44;;;;;;;4.80;4.32;;;12.10;99.90;;;;;;5092317;28;20024;-75
2022/06/03 04:12:16;;;;;;;5.65;4.10;;;12.00;99.90;;;;;;5091889;28;20388;-75
2022/06/03 04:14:56;;;;;;;4.63;4.22;;;12.00;99.90;;;;;;5092664;28;20169;-75
2022/06/03 04:17:59;;;;;;;4.95;4.55;;;12.00;99.90;;;;;;5092407;28;20046;-75
2022/06/03 04:21:15;;;;;;;7.95;4.55;;;11.90;99.90;;;;;;5092658;28;20039;-75
2022/06/03 04:24:21;;;;;;;4.95;4.47;;;11.90;99.90;;;;;;5049464;28;20047;-74
2022/06/03 04:27:21;;;;;;;5.47;4.57;;;11.90;99.90;;;;;;5079124;28;20075;-75
2022/06/03 04:29:55;;;;;;;5.78;4.32;;;11.90;99.90;;;;;;5072030;28;20029;-75
2022/06/03 04:32:49;;;;;;;10.70;4.75;;;11.90;99.90;;;;;;5088253;28;20089;-75
2022/06/03 04:35:30;;;;;;;4.45;4.15;;;12.00;99.90;;;;;;5044942;28;20549;-75
2022/06/03 04:38:15;;;;;;;5.18;4.68;;;12.00;99.90;;;;;;5071362;28;20516;-76
2022/06/03 04:41:03;;;;;;;4.90;4.38;;;12.00;99.90;;;;;;5086786;28;20082;-76
2022/06/03 04:44:15;;;;;;;6.05;4.20;;;12.00;99.90;;;;;;5091532;28;20028;-77
2022/06/03 04:46:46;;;;;;;4.70;4.30;;;12.00;99.90;;;;;;5079934;28;20016;-74
2022/06/03 04:49:59;;;;;;;5.07;4.68;;;12.10;99.90;;;;;;5091661;28;20482;-75
2022/06/03 04:52:43;;;;;;;5.95;4.40;;;12.10;99.90;;;;;;5076678;28;20209;-75
2022/06/03 04:55:27;;;;;;;5.22;4.72;;;12.20;99.90;;;;;;5091173;28;20020;-74
2022/06/03 04:58:13;;;;;;;12.30;5.65;;;12.30;99.90;;;;;;5091358;28;20031;-74
2022/06/03 05:01:01;;;;;;;7.50;4.82;;;12.50;99.90;;;;;;5079367;28;20043;-74
2022/06/03 05:04:00;;;;;;;5.18;4.55;;;12.60;99.90;;;;;;5091812;28;20024;-75
2022/06/03 05:06:44;;;;;;;6.63;4.72;;;12.70;99.90;;;;;;5091788;28;20541;-74
2022/06/03 05:09:47;;;;;;;5.72;4.78;;;12.80;99.90;;;;;;5078847;28;20028;-74
2022/06/03 05:12:21;;;;;;;7.10;5.50;;;12.90;99.90;;;;;;5095745;28;20161;-74
2022/06/03 05:15:02;;;;;;;5.43;4.93;;;13.00;99.90;;;;;;5095736;28;20099;-76
2022/06/03 05:17:52;;;;;;;5.97;5.35;;;13.00;99.90;;;;;;5096240;28;20047;-75
2022/06/03 05:20:43;;;;;;;5.70;4.97;;;13.20;99.90;;;;;;5095650;28;20035;-76
2022/06/03 05:23:26;;;;;;;7.05;5.22;;;13.30;99.90;;;;;;5095469;28;20032;-75
2022/06/03 05:26:29;;;;;;;5.43;4.65;;;13.40;99.90;;;;;;5094982;28;20024;-75
2022/06/03 05:29:04;;;;;;;5.22;4.82;;;13.50;99.90;;;;;;5094579;28;20023;-76
2022/06/03 05:31:35;;;;;;;6.22;5.00;;;13.60;99.90;;;;;;5095737;28;20028;-74
2022/06/03 05:34:19;;;;;;;6.20;5.60;;;13.60;99.90;;;;;;5094886;28;20127;-75
2022/06/03 05:37:04;;;;;;;10.52;5.93;;;13.70;99.90;;;;;;5095239;28;20028;-76
2022/06/03 05:39:53;;;;;;;5.63;5.22;;;13.70;99.90;;;;;;5096010;28;20023;-75
2022/06/03 05:43:20;;;;;;;9.57;5.88;;;13.70;99.90;;;;;;5094902;28;20681;-75
2022/06/03 05:45:46;;;;;;;6.05;4.93;;;13.80;99.90;;;;;;4990707;28;20040;-75
2022/06/03 05:48:44;;;;;;;5.70;5.20;;;13.90;99.90;;;;;;5095165;28;20019;-75
2022/06/03 05:51:48;;;;;;;6.32;5.40;;;14.00;99.90;;;;;;5094433;28;20028;-75
2022/06/03 05:54:31;;;;;;;6.18;5.28;;;14.10;99.90;;;;;;5093736;28;20059;-75
2022/06/03 05:57:25;;;;;;;5.85;5.13;;;14.10;99.90;;;;;;5092636;28;20016;-73
2022/06/03 06:00:14;;;;;;;4.80;4.40;;;14.20;99.90;;;;;;5092484;28;20105;-75
2022/06/03 06:03:10;;;;;;;5.80;5.20;;;14.30;99.90;;;;;;5092144;28;20020;-74
2022/06/03 06:06:13;;;;;;;6.53;5.35;;;14.40;99.90;;;;;;5093009;28;20103;-74
2022/06/03 06:08:45;;;;;;;5.78;5.22;;;14.40;99.90;;;;;;5089909;28;20487;-74
2022/06/03 06:11:18;;;;;;;7.57;5.05;;;14.50;99.90;;;;;;5092138;28;20040;-72
2022/06/03 06:14:05;;;;;;;5.50;5.03;;;14.60;99.90;;;;;;5090726;28;20392;-72
2022/06/03 06:16:44;;;;;;;6.10;5.60;;;14.70;99.90;;;;;;5091995;28;20468;-73
2022/06/03 06:19:45;;;;;;;5.30;4.90;;;14.70;99.90;;;;;;5090670;28;20016;-72
2022/06/03 06:22:26;;;;;;;6.32;5.28;;;14.70;99.90;;;;;;5074399;28;20032;-72
2022/06/03 06:25:03;;;;;;;5.68;4.70;;;14.80;99.90;;;;;;5092742;28;20024;-71
2022/06/03 06:27:48;;;;;;;6.22;5.18;;;14.80;99.90;;;;;;5093081;28;20031;-72
2022/06/03 06:30:25;;;;;;;6.07;5.40;;;14.80;99.90;;;;;;5093374;28;20077;-71
2022/06/03 06:33:12;;;;;;;10.73;5.13;;;14.90;99.90;;;;;;5092555;28;20119;-73
2022/06/03 06:35:59;;;;;;;6.28;5.63;;;15.00;99.90;;;;;;5092934;28;20095;-72
2022/06/03 06:38:45;;;;;;;7.57;5.47;;;15.00;99.90;;;;;;5092087;28;20024;-73
2022/06/03 06:41:42;;;;;;;5.60;4.97;;;15.00;99.90;;;;;;5082890;28;20491;-73
2022/06/03 06:44:19;;;;;;;5.78;5.28;;;15.10;99.90;;;;;;5093449;28;20425;-74
2022/06/03 06:47:12;;;;;;;7.35;5.18;;;15.10;99.90;;;;;;5093576;28;20495;-73
2022/06/03 06:49:47;;;;;;;6.45;5.25;;;15.20;99.90;;;;;;5094058;28;20472;-72
2022/06/03 06:52:28;;;;;;;6.13;5.30;;;15.30;99.90;;;;;;5093896;28;20131;-72
2022/06/03 06:55:15;;;;;;;5.43;4.90;;;15.30;99.90;;;;;;5093207;28;20031;-73
2022/06/03 06:57:54;;;;;;;6.80;6.15;;;15.60;99.90;;;;;;5080375;28;20051;-73
2022/06/03 07:00:30;;;;;;;9.55;5.85;;;15.40;99.90;;;;;;5093202;28;20090;-73
2022/06/03 07:03:19;;;;;;;5.05;4.55;;;15.50;99.90;;;;;;5093731;28;20108;-74
2022/06/03 07:05:58;;;;;;;6.32;5.10;;;15.50;99.90;;;;;;5093499;28;20031;-74
2022/06/03 07:08:39;;;;;;;6.35;5.75;;;15.50;99.90;;;;;;5092769;28;20114;-73
2022/06/03 07:11:22;;;;;;;6.38;5.60;;;15.60;99.90;;;;;;5093399;28;20032;-73
2022/06/03 07:14:03;;;;;;;8.38;4.82;;;15.60;99.90;;;;;;5092971;28;20024;-74
2022/06/03 07:20:20;;;;;;;6.22;4.85;;;15.70;99.90;;;;;;5092132;28;20489;-73
2022/06/03 07:22:58;;;;;;;10.90;5.78;;;15.80;99.90;;;;;;5085093;28;20024;-74
2022/06/03 07:25:29;;;;;;;6.43;5.35;;;15.90;99.90;;;;;;5093122;28;20354;-73
2022/06/03 07:28:00;;;;;;;;;;;15.90;99.90;;;;;;5092947;28;20020;-73
2022/06/03 07:30:47;;;;;;;5.63;5.13;;;16.00;99.90;;;;;;5093420;28;19904;-74
2022/06/03 07:33:34;;;;;;;7.30;5.00;;;16.10;99.90;;;;;;5093194;28;20032;-73
2022/06/03 07:36:27;;;;;;;6.68;4.88;;;16.10;99.90;;;;;;5088654;28;20468;-73
2022/06/03 07:39:06;;;;;;;5.32;4.93;;;16.20;99.90;;;;;;5092481;28;20020;-72
2022/06/03 07:41:45;;;;;;;6.53;4.88;;;16.30;99.90;;;;;;5093749;28;20016;-73
2022/06/03 07:44:19;;;;;;;5.45;4.97;;;16.40;99.90;;;;;;5088996;28;20028;-73
2022/06/03 07:46:52;;;;;;;5.57;4.55;;;16.50;99.90;;;;;;5092937;28;20020;-73
2022/06/03 07:49:21;;;;;;;5.50;4.30;;;16.50;99.90;;;;;;5092935;28;20024;-73
2022/06/03 07:51:51;;;;;;;5.28;4.75;;;16.60;99.90;;;;;;5093048;28;20039;-73
2022/06/03 07:54:23;;;;;;;9.55;5.40;;;16.70;99.90;;;;;;5092902;28;20020;-73
2022/06/03 07:56:49;;;;;;;7.65;5.20;;;16.80;99.90;;;;;;5092079;28;20126;-74
2022/06/03 07:59:19;;;;;;;8.95;4.32;;;16.90;99.90;;;;;;5082685;28;20467;-72
2022/06/03 08:01:57;;;;;;;4.38;4.07;;;16.90;99.90;;;;;;5089414;28;20484;-73
2022/06/03 08:04:30;;;;;;;4.72;4.32;;;17.00;99.90;;;;;;5092583;28;20078;-72
2022/06/03 08:12:37;;;;;;;7.55;4.00;;;17.30;99.90;;;;;;5087733;28;20115;-73
2022/06/03 08:15:17;;;;;;;4.28;3.88;;;17.30;99.90;;;;;;5091032;28;20073;-72
2022/06/03 08:17:46;;;;;;;4.20;3.88;;;17.40;99.90;;;;;;5091923;28;20396;-72
2022/06/03 08:20:15;;;;;;;4.70;4.10;;;17.40;99.90;;;;;;5092137;28;20023;-73
2022/06/03 08:22:41;;;;;;;6.13;4.25;;;17.50;99.90;;;;;;5092322;28;20019;-73
2022/06/03 08:25:08;;;;;;;3.95;3.65;;;17.70;99.90;;;;;;5091672;28;20020;-73
2022/06/03 08:27:35;;;;;;;7.47;4.13;;;17.70;99.90;;;;;;5091713;28;20020;-73
2022/06/03 08:30:06;;;;;;;4.40;4.10;;;17.80;99.90;;;;;;5091861;28;20144;-73
2022/06/03 08:32:40;;;;;;;4.68;4.13;;;17.80;99.90;;;;;;5091035;28;20032;-72
2022/06/03 08:35:10;;;;;;;5.55;4.18;;;17.90;99.90;;;;;;5091778;28;20028;-73
2022/06/03 08:37:44;;;;;;;4.78;4.38;;;18.00;99.90;;;;;;5092138;28;20027;-75
2022/06/03 08:40:23;;;;;;;5.30;4.47;;;18.10;99.90;;;;;;5091697;28;20024;-72
2022/06/03 08:42:59;;;;;;;4.95;4.45;;;18.10;99.90;;;;;;5091658;28;20034;-72
2022/06/03 08:45:39;;;;;;;6.22;4.32;;;18.20;99.90;;;;;;5091536;28;20067;-74
2022/06/03 08:48:11;;;;;;;6.28;3.83;;;18.30;99.90;;;;;;5089870;28;20037;-73
2022/06/03 08:50:41;;;;;;;4.72;4.43;;;18.30;99.90;;;;;;5081076;28;20484;-73
2022/06/03 08:53:11;;;;;;;4.95;4.55;;;18.40;99.90;;;;;;5091404;28;20028;-73
2022/06/03 08:55:55;;;;;;;4.40;4.03;;;18.50;99.90;;;;;;5092392;28;20567;-73
2022/06/03 08:58:30;;;;;;;5.47;5.07;;;18.60;99.90;;;;;;5092237;28;20043;-73
2022/06/03 09:01:24;;;;;;;4.25;3.90;;;18.60;99.90;;;;;;5098565;28;20035;-74
2022/06/03 09:04:14;;;;;;;6.63;4.47;;;18.80;99.90;;;;;;5091949;28;20016;-74
2022/06/03 09:07:04;;;;;;;9.50;4.97;;;18.80;99.90;;;;;;5090278;28;20457;-74
2022/06/03 09:09:40;;;;;;;4.45;3.78;;;19.00;99.90;;;;;;5089894;28;20028;-74
2022/06/03 09:12:12;;;;;;;3.83;3.53;;;19.10;99.90;;;;;;5090429;28;20115;-74
2022/06/03 09:14:41;;;;;;;6.70;4.20;;;19.10;99.90;;;;;;5090740;28;20104;-74
2022/06/03 09:17:31;;;;;;;6.53;4.50;;;19.20;99.90;;;;;;5088120;28;20315;-73
2022/06/03 09:19:59;;;;;;;5.28;4.07;;;19.30;99.90;;;;;;5089905;28;20100;-73
2022/06/03 09:22:31;;;;;;;4.30;3.90;;;19.30;99.90;;;;;;5089999;28;20035;-73
2022/06/03 09:24:59;;;;;;;4.50;4.00;;;19.30;99.90;;;;;;5090101;28;20449;-74
2022/06/03 09:27:27;;;;;;;6.57;4.15;;;19.30;99.90;;;;;;5090886;28;20111;-74
2022/06/03 09:29:56;;;;;;;6.28;3.80;;;19.40;99.90;;;;;;5088155;28;20024;-74
2022/06/03 09:32:25;;;;;;;4.03;3.72;;;19.50;99.90;;;;;;5090087;28;20037;-74
2022/06/03 09:34:56;;;;;;;4.07;3.78;;;19.70;99.90;;;;;;5090727;28;20023;-74
2022/06/03 09:37:30;;;;;;;4.25;3.85;;;19.70;99.90;;;;;;5091016;28;20024;-73
2022/06/03 09:39:57;;;;;;;3.10;2.90;;;19.80;99.90;;;;;;5088167;28;20020;-75
2022/06/03 09:42:26;;;;;;;3.85;3.22;;;20.00;99.90;;;;;;5089926;28;20028;-73
2022/06/03 09:44:53;;;;;;;5.90;3.10;;;20.00;99.30;;;;;;5087543;28;20030;-74
2022/06/03 09:47:22;;;;;;;6.32;3.45;;;20.10;99.50;;;;;;5090186;28;20035;-73
2022/06/03 09:49:50;;;;;;;3.05;2.80;;;20.10;99.20;;;;;;5090092;28;20040;-74
2022/06/03 09:52:20;;;;;;;9.35;2.90;;;20.10;99.90;;;;;;5090300;28;20507;-72
2022/06/03 09:54:47;;;;;;;3.50;2.80;;;20.00;99.20;;;;;;5090395;28;20028;-73
2022/06/03 09:57:21;;;;;;;5.35;3.30;;;20.10;98.80;;;;;;5090529;28;20031;-74
2022/06/03 09:59:57;;;;;;;2.90;2.60;;;20.20;99.40;;;;;;5093881;28;20048;-74
2022/06/03 10:02:26;;;;;;;3.10;2.80;;;20.30;99.50;;;;;;5094069;28;20118;-74
2022/06/03 10:04:51;;;;;;;8.45;3.50;;;20.40;98.60;;;;;;5090892;28;20414;-74
2022/06/03 10:07:18;;;;;;;2.88;2.67;;;20.50;98.00;;;;;;5093847;28;20024;-73
2022/06/03 10:12:52;;;;;;;3.42;2.10;;;20.50;96.70;;;;;;5094037;28;20067;-74
2022/06/03 10:15:39;;;;;;;;;;;20.60;97.10;;;;;;5095276;28;20082;-73
2022/06/03 10:18:18;;;;;;;2.15;2.03;;;20.70;96.60;;;;;;5085088;28;20462;-75
2022/06/03 10:20:45;;;;;;;2.17;1.95;;;20.90;96.60;;;;;;5094597;28;20097;-75
2022/06/03 10:23:11;;;;;;;2.08;1.98;;;21.00;96.50;;;;;;5094705;28;20052;-75
2022/06/03 10:25:49;;;;;;;3.63;2.40;;;21.10;96.10;;;;;;5094065;28;20020;-75
2022/06/03 10:28:16;;;;;;;2.70;1.80;;;21.20;96.40;;;;;;5094361;28;20050;-75
2022/06/03 10:30:44;;;;;;;2.63;2.10;;;21.20;95.50;;;;;;5082280;28;20773;-75
2022/06/03 10:33:21;;;;;;;2.25;1.60;;;21.20;95.30;;;;;;5094295;28;20744;-75
2022/06/03 10:35:49;;;;;;;2.40;2.00;;;21.20;95.00;;;;;;5094241;28;20086;-75
2022/06/03 10:38:17;;;;;;;1.70;1.60;;;21.30;95.00;;;;;;5091870;28;20032;-75
2022/06/03 10:40:50;;;;;;;3.08;2.05;;;21.30;94.50;;;;;;5091795;28;20035;-74
2022/06/03 10:43:26;;;;;;;2.25;1.73;;;21.60;94.90;;;;;;5090730;28;20016;-75
2022/06/03 10:45:52;;;;;;;1.80;1.70;;;21.50;93.10;;;;;;5092149;28;20486;-74
2022/06/03 10:48:29;;;;;;;7.50;1.83;;;21.50;93.90;;;;;;5092782;28;20091;-75
2022/06/03 10:51:13;;;;;;;2.00;1.90;;;21.70;93.10;;;;;;5092641;28;20022;-74
2022/06/03 11:02:01;;;;;;;16.88;2.42;;;22.00;92.20;;;;;;5092718;28;20068;-75
2022/06/03 11:04:33;;;;;;;2.53;2.33;;;21.90;92.30;;;;;;5092346;28;20024;-74
2022/06/03 11:07:00;;;;;;;2.42;2.22;;;22.00;92.40;;;;;;5089820;28;20028;-73
2022/06/03 11:09:26;;;;;;;6.32;2.25;;;22.10;92.60;;;;;;5092566;28;20027;-73
2022/06/03 11:12:01;;;;;;;1.77;1.65;;;22.10;92.20;;;;;;5092274;28;20032;-75
2022/06/03 11:14:35;;;;;;;2.13;1.92;;;22.20;92.80;;;;;;5092765;28;20012;-75
2022/06/03 11:17:02;;;;;;;5.47;2.50;;;22.20;92.30;;;;;;5091189;28;20024;-73
2022/06/03 11:19:32;;;;;;;1.90;1.80;;;22.20;91.40;;;;;;5094284;28;20020;-74
2022/06/03 11:22:14;;;;;;;2.38;1.58;;;22.20;90.90;;;;;;5086450;28;20028;-73
2022/06/03 11:24:40;;;;;;;3.97;2.20;;;22.30;91.40;;;;;;5088573;28;20545;-75
2022/06/03 11:27:10;;;;;;;2.15;1.90;;;22.30;90.80;;;;;;5085044;28;20404;-74
2022/06/03 11:29:39;;;;;;;2.42;1.50;;;22.40;91.00;;;;;;5086742;28;20116;-73
2022/06/03 11:32:08;;;;;;;2.53;2.17;;;22.40;90.50;;;;;;5088767;28;20380;-75
2022/06/03 11:34:43;;;;;;;2.73;2.50;;;22.60;91.10;;;;;;5090886;28;20073;-73
2022/06/03 11:37:22;;;;;;;2.60;2.40;;;22.60;90.30;;;;;;5082992;28;20103;-74
2022/06/03 11:40:05;;;;;;;2.05;1.80;;;22.70;90.90;;;;;;5096065;28;20034;-75
2022/06/03 11:42:43;;;;;;;2.58;2.38;;;22.70;90.80;;;;;;5094730;28;20027;-74
2022/06/03 11:45:17;;;;;;;3.00;2.55;;;22.70;90.60;;;;;;5094026;28;20059;-74
2022/06/03 11:47:58;;;;;;;2.72;2.53;;;22.80;89.90;;;;;;5091048;28;20047;-73
2022/06/03 11:50:28;;;;;;;4.75;2.65;;;22.80;90.00;;;;;;5091847;28;20031;-73
2022/06/03 11:52:55;;;;;;;5.23;3.10;;;22.80;88.50;;;;;;5091895;28;20340;-73
2022/06/03 11:55:23;;;;;;;2.70;2.50;;;22.80;89.50;;;;;;5092066;28;20273;-73
2022/06/03 11:58:01;;;;;;;5.00;2.83;;;22.80;89.80;;;;;;5092523;28;20024;-73
2022/06/03 12:00:32;;;;;;;3.28;2.63;;;23.00;88.90;;;;;;5092693;28;20039;-75
2022/06/03 12:02:57;;;;;;;;;;;23.10;90.10;;;;;;5092478;28;20027;-75
2022/06/03 12:05:36;;;;;;;2.92;2.50;;;23.10;87.20;;;;;;5092450;28;19904;-75
2022/06/03 12:08:11;;;;;;;3.97;2.25;;;23.30;89.80;;;;;;5092045;28;20098;-74
2022/06/03 12:10:44;;;;;;;5.30;2.50;;;23.40;87.70;;;;;;5091989;28;20085;-75
2022/06/03 12:13:26;;;;;;;4.30;2.30;;;23.50;87.40;;;;;;5091705;28;20040;-75
2022/06/03 12:15:58;;;;;;;2.67;2.40;;;23.60;88.90;;;;;;5091610;28;20069;-75
2022/06/03 12:18:34;;;;;;;4.45;2.30;;;23.60;88.90;;;;;;5092179;28;20543;-74
2022/06/03 12:21:14;;;;;;;2.30;2.10;;;23.70;88.40;;;;;;5091307;28;20063;-75
2022/06/03 12:23:41;;;;;;;3.03;1.98;;;23.60;88.10;;;;;;5092020;28;20023;-75
2022/06/03 12:26:16;;;;;;;3.03;2.00;;;23.60;88.80;;;;;;5092280;28;20024;-74
2022/06/03 12:28:46;;;;;;;2.45;2.22;;;23.80;88.60;;;;;;5088712;28;20019;-74
2022/06/03 12:31:20;;;;;;;2.10;1.95;;;23.90;88.60;;;;;;5088793;28;20016;-74
2022/06/03 12:34:01;;;;;;;2.70;1.85;;;23.80;88.10;;;;;;5092104;28;20106;-74
2022/06/03 12:36:36;;;;;;;4.25;2.20;;;23.90;87.10;;;;;;5092184;28;20027;-74
2022/06/03 12:39:01;;;;;;;2.53;2.33;;;23.90;87.20;;;;;;5091533;28;20051;-74
2022/06/03 12:42:02;;;;;;;6.15;2.63;;;24.10;87.30;;;;;;5084747;28;20442;-74
2022/06/03 12:45:06;;;;;;;2.55;2.13;;;24.10;83.60;;;;;;4983748;28;20051;-75
2022/06/03 12:47:31;;;;;;;1.33;1.23;;;24.20;84.20;;;;;;5035418;28;20085;-74
2022/06/03 12:50:23;;;;;;;1.38;1.27;;;24.20;82.40;;;;;;5091316;28;20091;-74
2022/06/03 12:52:51;;;;;;;3.20;1.45;;;24.30;81.10;;;;;;5077870;28;20033;-74
2022/06/03 12:55:29;;;;;;;1.75;1.20;;;24.40;81.00;;;;;;5091485;28;20432;-74
2022/06/03 12:57:55;;;;;;;3.30;1.20;;;24.50;81.30;;;;;;5091685;28;20020;-73
2022/06/03 13:00:21;;;;;;;1.58;1.38;;;24.60;80.30;;;;;;5091410;28;20051;-74
2022/06/03 13:03:02;;;;;;;7.40;1.27;;;24.60;78.30;;;;;;5091878;28;20464;-74
2022/06/03 13:05:44;;;;;;;3.15;1.30;;;24.70;79.50;;;;;;5091438;28;20043;-74
2022/06/03 13:08:32;;;;;;;1.40;1.30;;;24.70;76.70;;;;;;5091780;28;20028;-74
2022/06/03 13:11:00;;;;;;;1.45;1.30;;;24.90;77.70;;;;;;5091417;28;20103;-74
2022/06/03 13:13:32;;;;;;;1.80;1.17;;;25.00;75.50;;;;;;5091350;28;20406;-75
2022/06/03 13:16:22;;;;;;;1.20;1.10;;;25.10;75.60;;;;;;5091296;28;20028;-74
2022/06/03 13:18:55;;;;;;;1.40;1.27;;;25.30;75.00;;;;;;5088493;28;20036;-74
2022/06/03 13:21:53;;;;;;;1.85;0.93;;;25.50;74.80;;;;;;5081252;28;20028;-74
2022/06/03 13:24:25;;;;;;;3.17;1.20;;;25.60;73.10;;;;;;5069869;28;20051;-75
2022/06/03 13:27:08;;;;;;;0.95;0.95;;;25.70;71.50;;;;;;5091982;28;20027;-75
2022/06/03 13:29:49;;;;;;;1.30;1.20;;;25.60;69.60;;;;;;5091976;28;20028;-74
2022/06/03 13:32:19;;;;;;;1.25;1.15;;;25.50;70.80;;;;;;5093016;28;20063;-74
2022/06/03 13:34:45;;;;;;;1.30;1.20;;;25.40;71.10;;;;;;5094967;28;20020;-73
2022/06/03 13:37:29;;;;;;;1.52;1.20;;;25.30;71.00;;;;;;5095041;28;20036;-74
2022/06/03 13:39:55;;;;;;;1.30;1.20;;;25.30;71.00;;;;;;5095399;28;20062;-74
2022/06/03 13:45:04;;;;;;;1.52;1.30;;;25.30;71.90;;;;;;5095341;28;20422;-73
2022/06/03 13:47:33;;;;;;;1.27;1.25;;;25.40;72.30;;;;;;5095250;28;20021;-74
2022/06/03 13:50:07;;;;;;;1.60;1.50;;;25.50;72.40;;;;;;5095350;28;20476;-75
2022/06/03 13:52:37;;;;;;;2.83;1.98;;;25.70;71.60;;;;;;5095615;28;20035;-74
2022/06/03 13:55:14;;;;;;;3.05;1.70;;;25.70;71.00;;;;;;5080275;28;20032;-74
2022/06/03 13:57:42;;;;;;;1.65;1.55;;;25.70;71.10;;;;;;5095575;28;20032;-74
2022/06/03 14:00:19;;;;;;;1.73;1.27;;;25.70;71.60;;;;;;5094488;28;20052;-74
2022/06/03 14:02:48;;;;;;;3.30;1.70;;;25.80;70.80;;;;;;5095930;28;20032;-74
2022/06/03 14:05:27;;;;;;;2.00;1.65;;;25.90;72.30;;;;;;5095617;28;20464;-74
2022/06/03 14:07:57;;;;;;;2.08;1.88;;;26.00;71.90;;;;;;5094976;28;20491;-74
2022/06/03 14:10:23;;;;;;;;;;;26.10;72.50;;;;;;5095179;28;20027;-74
2022/06/03 14:13:18;;;;;;;3.67;1.83;;;26.20;72.60;;;;;;5094457;28;20347;-74
2022/06/03 14:16:00;;;;;;;1.60;1.50;;;26.40;71.10;;;;;;5094643;28;20331;-73
2022/06/03 14:18:49;;;;;;;2.17;1.40;;;26.40;70.70;;;;;;5081313;28;20469;-74
2022/06/03 14:21:22;;;;;;;1.70;1.60;;;26.50;70.60;;;;;;5060705;28;20452;-74
2022/06/03 14:23:49;;;;;;;2.92;1.83;;;26.40;68.00;;;;;;5093048;28;20020;-74